sensor_id;sensor_type;location;lat;lon;timestamp;temperature;humidity
21602;DHT22;10963;50.934;4.668;2022-10-16T00:01:45;15.00;99.90
21602;DHT22;10963;50.934;4.668;2022-10-16T00:04:13;15.00;99.90
21602;DHT22;10963;50.934;4.668;2022-10-16T00:06:39;14.90;99.90
21602;DHT22;10963;50.934;4.668;2022-10-16T00:09:07;14.80;99.90
21602;DHT22;10963;50.934;4.668;2022-10-16T00:11:35;14.80;99.90
21602;DHT22;10963;50.934;4.668;2022-10-16T00:14:05;14.70;99.90
21602;DHT22;10963;50.934;4.668;2022-10-16T00:16:32;14.70;99.90
21602;DHT22;10963;50.934;4.668;2022-10-16T00:18:58;14.80;99.90
21602;DHT22;10963;50.934;4.668;2022-10-16T00:21:27;14.70;99.90
21602;DHT22;10963;50.934;4.668;2022-10-16T00:23:56;14.70;99.90
21602;DHT22;10963;50.934;4.668;2022-10-16T00:26:22;14.70;99.90
21602;DHT22;10963;50.934;4.668;2022-10-16T00:28:52;14.70;99.90
21602;DHT22;10963;50.934;4.668;2022-10-16T00:31:23;14.80;99.90
21602;DHT22;10963;50.934;4.668;2022-10-16T00:33:54;14.80;99.90
21602;DHT22;10963;50.934;4.668;2022-10-16T00:36:22;14.70;99.90
21602;DHT22;10963;50.934;4.668;2022-10-16T00:38:54;14.50;99.90
21602;DHT22;10963;50.934;4.668;2022-10-16T00:41:23;14.50;99.90
21602;DHT22;10963;50.934;4.668;2022-10-16T00:43:58;14.40;99.90
21602;DHT22;10963;50.934;4.668;2022-10-16T00:46:37;14.60;99.90
21602;DHT22;10963;50.934;4.668;2022-10-16T00:51:42;14.60;99.90
21602;DHT22;10963;50.934;4.668;2022-10-16T00:54:25;14.60;99.90
21602;DHT22;10963;50.934;4.668;2022-10-16T00:56:54;14.60;99.90
21602;DHT22;10963;50.934;4.668;2022-10-16T00:59:26;14.60;99.90
21602;DHT22;10963;50.934;4.668;2022-10-16T01:01:53;14.60;99.90
21602;DHT22;10963;50.934;4.668;2022-10-16T01:04:22;14.60;99.90
21602;DHT22;10963;50.934;4.668;2022-10-16T01:09:35;14.50;99.90
21602;DHT22;10963;50.934;4.668;2022-10-16T01:12:14;14.50;99.90
21602;DHT22;10963;50.934;4.668;2022-10-16T01:14:56;14.40;99.90
21602;DHT22;10963;50.934;4.668;2022-10-16T01:17:28;14.40;99.90
21602;DHT22;10963;50.934;4.668;2022-10-16T01:20:05;14.40;99.90
21602;DHT22;10963;50.934;4.668;2022-10-16T01:28:02;14.30;99.90
21602;DHT22;10963;50.934;4.668;2022-10-16T01:30:32;14.30;99.90
21602;DHT22;10963;50.934;4.668;2022-10-16T01:33:19;14.40;99.90
21602;DHT22;10963;50.934;4.668;2022-10-16T01:35:50;14.40;99.90
21602;DHT22;10963;50.934;4.668;2022-10-16T01:40:58;14.40;99.90
21602;DHT22;10963;50.934;4.668;2022-10-16T01:43:30;14.40;99.90
21602;DHT22;10963;50.934;4.668;2022-10-16T01:45:59;14.40;99.90
21602;DHT22;10963;50.934;4.668;2022-10-16T01:48:25;14.40;99.90
21602;DHT22;10963;50.934;4.668;2022-10-16T01:51:05;14.30;99.90
21602;DHT22;10963;50.934;4.668;2022-10-16T01:53:34;14.30;99.90
21602;DHT22;10963;50.934;4.668;2022-10-16T01:56:02;14.30;99.90
21602;DHT22;10963;50.934;4.668;2022-10-16T01:58:34;14.40;99.90
21602;DHT22;10963;50.934;4.668;2022-10-16T02:01:05;14.40;99.90
21602;DHT22;10963;50.934;4.668;2022-10-16T02:03:37;14.40;99.90
21602;DHT22;10963;50.934;4.668;2022-10-16T02:06:07;14.30;99.90
21602;DHT22;10963;50.934;4.668;2022-10-16T02:08:35;14.30;99.90
21602;DHT22;10963;50.934;4.668;2022-10-16T02:11:06;14.20;99.90
21602;DHT22;10963;50.934;4.668;2022-10-16T02:13:48;14.20;99.90
21602;DHT22;10963;50.934;4.668;2022-10-16T02:16:19;14.30;99.90
21602;DHT22;10963;50.934;4.668;2022-10-16T02:18:47;14.30;99.90
21602;DHT22;10963;50.934;4.668;2022-10-16T02:21:28;14.30;99.90
21602;DHT22;10963;50.934;4.668;2022-10-16T02:24:27;14.30;99.90
21602;DHT22;10963;50.934;4.668;2022-10-16T02:27:28;14.40;99.90
21602;DHT22;10963;50.934;4.668;2022-10-16T02:32:35;14.40;99.90
21602;DHT22;10963;50.934;4.668;2022-10-16T02:35:02;14.40;99.90
21602;DHT22;10963;50.934;4.668;2022-10-16T02:37:28;14.40;99.90
21602;DHT22;10963;50.934;4.668;2022-10-16T02:39:56;14.40;99.90
21602;DHT22;10963;50.934;4.668;2022-10-16T02:42:31;14.30;99.90
21602;DHT22;10963;50.934;4.668;2022-10-16T02:44:58;14.40;99.90
21602;DHT22;10963;50.934;4.668;2022-10-16T02:47:23;14.30;99.90
21602;DHT22;10963;50.934;4.668;2022-10-16T02:49:51;14.30;99.90
21602;DHT22;10963;50.934;4.668;2022-10-16T02:52:19;14.10;99.90
21602;DHT22;10963;50.934;4.668;2022-10-16T02:54:45;14.20;99.90
21602;DHT22;10963;50.934;4.668;2022-10-16T02:57:13;14.20;99.90
21602;DHT22;10963;50.934;4.668;2022-10-16T02:59:38;14.10;99.90
21602;DHT22;10963;50.934;4.668;2022-10-16T03:02:07;14.00;99.90
21602;DHT22;10963;50.934;4.668;2022-10-16T03:04:32;14.10;99.90
21602;DHT22;10963;50.934;4.668;2022-10-16T03:07:00;14.10;99.90
21602;DHT22;10963;50.934;4.668;2022-10-16T03:09:28;14.00;99.90
21602;DHT22;10963;50.934;4.668;2022-10-16T03:11:56;14.00;99.90
21602;DHT22;10963;50.934;4.668;2022-10-16T03:14:22;14.10;99.90
21602;DHT22;10963;50.934;4.668;2022-10-16T03:16:50;14.10;99.90
21602;DHT22;10963;50.934;4.668;2022-10-16T03:19:17;14.20;99.90
21602;DHT22;10963;50.934;4.668;2022-10-16T03:21:43;14.20;99.90
21602;DHT22;10963;50.934;4.668;2022-10-16T03:24:09;14.20;99.90
21602;DHT22;10963;50.934;4.668;2022-10-16T03:26:37;14.40;99.90
21602;DHT22;10963;50.934;4.668;2022-10-16T03:29:05;14.40;99.90
21602;DHT22;10963;50.934;4.668;2022-10-16T03:31:37;14.30;99.90
21602;DHT22;10963;50.934;4.668;2022-10-16T03:34:03;14.30;99.90
21602;DHT22;10963;50.934;4.668;2022-10-16T03:36:33;14.40;99.90
21602;DHT22;10963;50.934;4.668;2022-10-16T03:38:59;14.50;99.90
21602;DHT22;10963;50.934;4.668;2022-10-16T03:41:27;14.40;99.90
21602;DHT22;10963;50.934;4.668;2022-10-16T03:43:52;14.40;99.90
21602;DHT22;10963;50.934;4.668;2022-10-16T03:46:18;14.40;99.90
21602;DHT22;10963;50.934;4.668;2022-10-16T03:48:44;14.30;99.90
21602;DHT22;10963;50.934;4.668;2022-10-16T03:51:09;14.30;99.90
21602;DHT22;10963;50.934;4.668;2022-10-16T03:53:35;14.20;99.90
21602;DHT22;10963;50.934;4.668;2022-10-16T03:56:01;14.30;99.90
21602;DHT22;10963;50.934;4.668;2022-10-16T03:58:26;14.40;99.90
21602;DHT22;10963;50.934;4.668;2022-10-16T04:00:55;14.30;99.90
21602;DHT22;10963;50.934;4.668;2022-10-16T04:03:20;14.30;99.90
21602;DHT22;10963;50.934;4.668;2022-10-16T04:05:46;14.30;99.90
21602;DHT22;10963;50.934;4.668;2022-10-16T04:08:14;14.50;99.90
21602;DHT22;10963;50.934;4.668;2022-10-16T04:10:42;14.40;99.90
21602;DHT22;10963;50.934;4.668;2022-10-16T04:13:11;14.50;99.90
21602;DHT22;10963;50.934;4.668;2022-10-16T04:15:37;14.40;99.90
21602;DHT22;10963;50.934;4.668;2022-10-16T04:18:06;14.20;99.90
21602;DHT22;10963;50.934;4.668;2022-10-16T04:20:32;14.10;99.90
21602;DHT22;10963;50.934;4.668;2022-10-16T04:23:01;14.10;99.90
21602;DHT22;10963;50.934;4.668;2022-10-16T04:25:26;14.10;99.90
21602;DHT22;10963;50.934;4.668;2022-10-16T04:27:57;14.10;99.90
21602;DHT22;10963;50.934;4.668;2022-10-16T04:30:23;14.10;99.90
21602;DHT22;10963;50.934;4.668;2022-10-16T04:32:50;14.10;99.90
21602;DHT22;10963;50.934;4.668;2022-10-16T04:35:17;14.10;99.90
21602;DHT22;10963;50.934;4.668;2022-10-16T04:37:43;14.10;99.90
21602;DHT22;10963;50.934;4.668;2022-10-16T04:40:09;14.10;99.90
21602;DHT22;10963;50.934;4.668;2022-10-16T04:42:35;14.10;99.90
21602;DHT22;10963;50.934;4.668;2022-10-16T04:45:04;14.10;99.90
21602;DHT22;10963;50.934;4.668;2022-10-16T04:47:34;14.10;99.90
21602;DHT22;10963;50.934;4.668;2022-10-16T04:50:05;14.10;99.90
21602;DHT22;10963;50.934;4.668;2022-10-16T04:52:34;14.10;99.90
21602;DHT22;10963;50.934;4.668;2022-10-16T04:55:02;14.00;99.90
21602;DHT22;10963;50.934;4.668;2022-10-16T04:57:31;14.00;99.90
21602;DHT22;10963;50.934;4.668;2022-10-16T04:59:59;13.90;99.90
21602;DHT22;10963;50.934;4.668;2022-10-16T05:02:27;14.00;99.90
21602;DHT22;10963;50.934;4.668;2022-10-16T05:04:55;14.00;99.90
21602;DHT22;10963;50.934;4.668;2022-10-16T05:07:25;14.00;99.90
21602;DHT22;10963;50.934;4.668;2022-10-16T05:09:50;14.00;99.90
21602;DHT22;10963;50.934;4.668;2022-10-16T05:12:16;14.00;99.90
21602;DHT22;10963;50.934;4.668;2022-10-16T05:14:43;14.10;99.90
21602;DHT22;10963;50.934;4.668;2022-10-16T05:17:09;14.00;99.90
21602;DHT22;10963;50.934;4.668;2022-10-16T05:19:34;13.90;99.90
21602;DHT22;10963;50.934;4.668;2022-10-16T05:22:02;13.90;99.90
21602;DHT22;10963;50.934;4.668;2022-10-16T05:24:34;13.90;99.90
21602;DHT22;10963;50.934;4.668;2022-10-16T05:27:02;13.90;99.90
21602;DHT22;10963;50.934;4.668;2022-10-16T05:29:30;13.90;99.90
21602;DHT22;10963;50.934;4.668;2022-10-16T05:31:58;13.80;99.90
21602;DHT22;10963;50.934;4.668;2022-10-16T05:34:27;13.90;99.90
21602;DHT22;10963;50.934;4.668;2022-10-16T05:36:59;13.90;99.90
21602;DHT22;10963;50.934;4.668;2022-10-16T05:39:25;13.90;99.90
21602;DHT22;10963;50.934;4.668;2022-10-16T05:41:56;13.80;99.90
21602;DHT22;10963;50.934;4.668;2022-10-16T05:44:22;13.90;99.90
21602;DHT22;10963;50.934;4.668;2022-10-16T05:46:52;13.80;99.90
21602;DHT22;10963;50.934;4.668;2022-10-16T05:49:20;13.80;99.90
21602;DHT22;10963;50.934;4.668;2022-10-16T05:51:49;13.90;99.90
21602;DHT22;10963;50.934;4.668;2022-10-16T05:54:14;13.90;99.90
21602;DHT22;10963;50.934;4.668;2022-10-16T05:56:40;14.00;99.90
21602;DHT22;10963;50.934;4.668;2022-10-16T05:59:06;13.90;99.90
21602;DHT22;10963;50.934;4.668;2022-10-16T06:01:34;13.90;99.90
21602;DHT22;10963;50.934;4.668;2022-10-16T06:04:01;13.80;99.90
21602;DHT22;10963;50.934;4.668;2022-10-16T06:06:29;13.80;99.90
21602;DHT22;10963;50.934;4.668;2022-10-16T06:08:58;13.80;99.90
21602;DHT22;10963;50.934;4.668;2022-10-16T06:11:28;13.80;99.90
21602;DHT22;10963;50.934;4.668;2022-10-16T06:13:59;13.90;99.90
21602;DHT22;10963;50.934;4.668;2022-10-16T06:16:27;13.90;99.90
21602;DHT22;10963;50.934;4.668;2022-10-16T06:18:54;13.80;99.90
21602;DHT22;10963;50.934;4.668;2022-10-16T06:21:23;13.80;99.90
21602;DHT22;10963;50.934;4.668;2022-10-16T06:23:50;13.80;99.90
21602;DHT22;10963;50.934;4.668;2022-10-16T06:26:18;13.80;99.90
21602;DHT22;10963;50.934;4.668;2022-10-16T06:28:44;13.70;99.90
21602;DHT22;10963;50.934;4.668;2022-10-16T06:31:11;13.70;99.90
21602;DHT22;10963;50.934;4.668;2022-10-16T06:33:38;13.70;99.90
21602;DHT22;10963;50.934;4.668;2022-10-16T06:38:34;13.80;99.90
21602;DHT22;10963;50.934;4.668;2022-10-16T06:41:00;13.80;99.90
21602;DHT22;10963;50.934;4.668;2022-10-16T06:43:29;13.80;99.90
21602;DHT22;10963;50.934;4.668;2022-10-16T06:46:04;13.70;99.90
21602;DHT22;10963;50.934;4.668;2022-10-16T06:48:30;13.70;99.90
21602;DHT22;10963;50.934;4.668;2022-10-16T06:51:06;13.80;99.90
21602;DHT22;10963;50.934;4.668;2022-10-16T06:53:35;13.80;99.90
21602;DHT22;10963;50.934;4.668;2022-10-16T06:56:13;13.80;99.90
21602;DHT22;10963;50.934;4.668;2022-10-16T06:58:40;13.90;99.90
21602;DHT22;10963;50.934;4.668;2022-10-16T07:01:06;14.10;99.90
21602;DHT22;10963;50.934;4.668;2022-10-16T07:03:33;14.20;99.90
21602;DHT22;10963;50.934;4.668;2022-10-16T07:06:02;14.30;99.90
21602;DHT22;10963;50.934;4.668;2022-10-16T07:08:31;14.40;99.90
21602;DHT22;10963;50.934;4.668;2022-10-16T07:11:02;14.30;99.90
21602;DHT22;10963;50.934;4.668;2022-10-16T07:13:33;14.30;99.90
21602;DHT22;10963;50.934;4.668;2022-10-16T07:16:16;14.30;99.90
21602;DHT22;10963;50.934;4.668;2022-10-16T07:18:43;14.40;99.90
21602;DHT22;10963;50.934;4.668;2022-10-16T07:21:16;14.40;99.90
21602;DHT22;10963;50.934;4.668;2022-10-16T07:23:43;14.50;99.90
21602;DHT22;10963;50.934;4.668;2022-10-16T07:26:12;14.50;99.90
21602;DHT22;10963;50.934;4.668;2022-10-16T07:28:38;14.60;99.90
21602;DHT22;10963;50.934;4.668;2022-10-16T07:31:07;14.60;99.90
21602;DHT22;10963;50.934;4.668;2022-10-16T07:33:34;14.80;99.90
21602;DHT22;10963;50.934;4.668;2022-10-16T07:36:02;14.70;99.90
21602;DHT22;10963;50.934;4.668;2022-10-16T07:38:29;14.70;99.90
21602;DHT22;10963;50.934;4.668;2022-10-16T07:41:02;14.70;99.90
21602;DHT22;10963;50.934;4.668;2022-10-16T07:43:33;14.70;99.90
21602;DHT22;10963;50.934;4.668;2022-10-16T07:46:03;14.70;99.90
21602;DHT22;10963;50.934;4.668;2022-10-16T07:48:32;14.80;99.90
21602;DHT22;10963;50.934;4.668;2022-10-16T07:51:02;14.80;99.90
21602;DHT22;10963;50.934;4.668;2022-10-16T07:53:28;14.80;99.90
21602;DHT22;10963;50.934;4.668;2022-10-16T07:55:58;14.80;99.90
21602;DHT22;10963;50.934;4.668;2022-10-16T07:58:27;14.90;99.90
21602;DHT22;10963;50.934;4.668;2022-10-16T08:00:56;14.90;99.90
21602;DHT22;10963;50.934;4.668;2022-10-16T08:03:22;15.00;99.90
21602;DHT22;10963;50.934;4.668;2022-10-16T08:05:50;14.90;99.90
21602;DHT22;10963;50.934;4.668;2022-10-16T08:08:17;15.00;99.90
21602;DHT22;10963;50.934;4.668;2022-10-16T08:10:43;15.00;99.90
21602;DHT22;10963;50.934;4.668;2022-10-16T08:13:09;15.00;99.90
21602;DHT22;10963;50.934;4.668;2022-10-16T08:15:40;15.00;99.90
21602;DHT22;10963;50.934;4.668;2022-10-16T08:18:10;15.10;99.90
21602;DHT22;10963;50.934;4.668;2022-10-16T08:20:36;15.20;99.90
21602;DHT22;10963;50.934;4.668;2022-10-16T08:23:06;15.30;99.90
21602;DHT22;10963;50.934;4.668;2022-10-16T08:25:35;15.40;99.90
21602;DHT22;10963;50.934;4.668;2022-10-16T08:28:05;15.60;99.90
21602;DHT22;10963;50.934;4.668;2022-10-16T08:30:34;15.70;99.90
21602;DHT22;10963;50.934;4.668;2022-10-16T08:33:01;15.90;99.90
21602;DHT22;10963;50.934;4.668;2022-10-16T08:35:28;16.10;99.90
21602;DHT22;10963;50.934;4.668;2022-10-16T08:37:54;16.20;99.90
21602;DHT22;10963;50.934;4.668;2022-10-16T08:40:27;16.30;99.90
21602;DHT22;10963;50.934;4.668;2022-10-16T08:45:43;16.40;99.90
21602;DHT22;10963;50.934;4.668;2022-10-16T08:48:27;16.50;99.90
21602;DHT22;10963;50.934;4.668;2022-10-16T08:50:55;16.70;99.90
21602;DHT22;10963;50.934;4.668;2022-10-16T08:53:31;16.90;99.90
21602;DHT22;10963;50.934;4.668;2022-10-16T08:56:02;16.90;99.90
21602;DHT22;10963;50.934;4.668;2022-10-16T08:58:29;17.00;99.90
21602;DHT22;10963;50.934;4.668;2022-10-16T09:01:03;17.00;99.90
21602;DHT22;10963;50.934;4.668;2022-10-16T09:12:08;17.50;99.90
21602;DHT22;10963;50.934;4.668;2022-10-16T09:15:02;17.50;99.90
21602;DHT22;10963;50.934;4.668;2022-10-16T09:22:36;17.80;99.90
21602;DHT22;10963;50.934;4.668;2022-10-16T09:25:15;18.10;99.90
21602;DHT22;10963;50.934;4.668;2022-10-16T09:27:46;18.20;99.90
21602;DHT22;10963;50.934;4.668;2022-10-16T09:30:20;18.20;99.90
21602;DHT22;10963;50.934;4.668;2022-10-16T09:32:51;18.30;99.90
21602;DHT22;10963;50.934;4.668;2022-10-16T09:35:20;18.40;99.90
21602;DHT22;10963;50.934;4.668;2022-10-16T09:37:54;18.40;99.90
21602;DHT22;10963;50.934;4.668;2022-10-16T09:40:31;18.50;99.90
21602;DHT22;10963;50.934;4.668;2022-10-16T09:43:26;18.50;99.90
21602;DHT22;10963;50.934;4.668;2022-10-16T09:46:08;18.50;99.90
21602;DHT22;10963;50.934;4.668;2022-10-16T09:48:50;18.60;99.90
21602;DHT22;10963;50.934;4.668;2022-10-16T09:51:35;18.80;99.90
21602;DHT22;10963;50.934;4.668;2022-10-16T09:56:36;18.80;99.90
21602;DHT22;10963;50.934;4.668;2022-10-16T09:59:18;18.80;99.90
21602;DHT22;10963;50.934;4.668;2022-10-16T10:01:51;18.90;99.90
21602;DHT22;10963;50.934;4.668;2022-10-16T10:04:19;19.20;99.90
21602;DHT22;10963;50.934;4.668;2022-10-16T10:06:48;19.10;99.90
21602;DHT22;10963;50.934;4.668;2022-10-16T10:09:16;19.10;99.90
21602;DHT22;10963;50.934;4.668;2022-10-16T10:14:35;19.40;99.90
21602;DHT22;10963;50.934;4.668;2022-10-16T10:17:11;19.60;99.90
21602;DHT22;10963;50.934;4.668;2022-10-16T10:20:00;19.70;99.90
21602;DHT22;10963;50.934;4.668;2022-10-16T10:22:40;19.90;99.90
21602;DHT22;10963;50.934;4.668;2022-10-16T10:33:47;20.20;99.90
21602;DHT22;10963;50.934;4.668;2022-10-16T10:41:59;20.40;99.90
21602;DHT22;10963;50.934;4.668;2022-10-16T10:44:37;20.50;99.90
21602;DHT22;10963;50.934;4.668;2022-10-16T11:01:12;21.40;99.90
21602;DHT22;10963;50.934;4.668;2022-10-16T11:10:03;22.10;99.90
21602;DHT22;10963;50.934;4.668;2022-10-16T11:12:44;21.90;99.90
21602;DHT22;10963;50.934;4.668;2022-10-16T11:15:18;22.00;99.90
21602;DHT22;10963;50.934;4.668;2022-10-16T11:18:11;22.10;99.90
21602;DHT22;10963;50.934;4.668;2022-10-16T11:20:57;21.90;99.90
21602;DHT22;10963;50.934;4.668;2022-10-16T11:23:46;21.80;99.90
21602;DHT22;10963;50.934;4.668;2022-10-16T11:26:21;21.60;99.90
21602;DHT22;10963;50.934;4.668;2022-10-16T11:28:51;21.60;99.90
21602;DHT22;10963;50.934;4.668;2022-10-16T11:31:36;21.70;99.90
21602;DHT22;10963;50.934;4.668;2022-10-16T11:34:22;21.90;99.90
21602;DHT22;10963;50.934;4.668;2022-10-16T11:37:14;21.70;99.90
21602;DHT22;10963;50.934;4.668;2022-10-16T11:39:38;21.30;99.90
21602;DHT22;10963;50.934;4.668;2022-10-16T11:42:30;21.40;99.90
21602;DHT22;10963;50.934;4.668;2022-10-16T11:50:44;22.10;99.90
21602;DHT22;10963;50.934;4.668;2022-10-16T11:53:34;22.50;99.90
21602;DHT22;10963;50.934;4.668;2022-10-16T11:56:04;22.40;99.90
21602;DHT22;10963;50.934;4.668;2022-10-16T11:58:44;22.50;99.90
21602;DHT22;10963;50.934;4.668;2022-10-16T12:01:20;22.50;99.90
21602;DHT22;10963;50.934;4.668;2022-10-16T12:06:52;22.20;99.90
21602;DHT22;10963;50.934;4.668;2022-10-16T12:09:30;22.10;99.90
21602;DHT22;10963;50.934;4.668;2022-10-16T12:11:56;22.20;99.90
21602;DHT22;10963;50.934;4.668;2022-10-16T12:14:39;22.10;99.90
21602;DHT22;10963;50.934;4.668;2022-10-16T12:17:22;22.00;99.90
21602;DHT22;10963;50.934;4.668;2022-10-16T12:25:34;22.30;99.90
21602;DHT22;10963;50.934;4.668;2022-10-16T12:28:26;22.00;99.90
21602;DHT22;10963;50.934;4.668;2022-10-16T12:31:07;22.10;99.90
21602;DHT22;10963;50.934;4.668;2022-10-16T12:33:52;22.20;99.90
21602;DHT22;10963;50.934;4.668;2022-10-16T12:36:31;22.20;99.90
21602;DHT22;10963;50.934;4.668;2022-10-16T12:38:57;22.30;99.90
21602;DHT22;10963;50.934;4.668;2022-10-16T12:41:35;22.30;99.90
21602;DHT22;10963;50.934;4.668;2022-10-16T12:44:03;22.30;99.90
21602;DHT22;10963;50.934;4.668;2022-10-16T12:51:38;22.30;99.90
21602;DHT22;10963;50.934;4.668;2022-10-16T12:54:27;22.40;99.90
21602;DHT22;10963;50.934;4.668;2022-10-16T13:13:27;22.70;99.90
21602;DHT22;10963;50.934;4.668;2022-10-16T13:16:12;22.70;99.90
21602;DHT22;10963;50.934;4.668;2022-10-16T13:27:18;22.70;99.90
21602;DHT22;10963;50.934;4.668;2022-10-16T13:30:08;22.30;99.90
21602;DHT22;10963;50.934;4.668;2022-10-16T13:32:36;22.60;99.90
21602;DHT22;10963;50.934;4.668;2022-10-16T13:35:23;22.60;99.90
21602;DHT22;10963;50.934;4.668;2022-10-16T13:37:50;22.00;99.90
21602;DHT22;10963;50.934;4.668;2022-10-16T13:40:22;22.10;99.90
21602;DHT22;10963;50.934;4.668;2022-10-16T13:42:49;22.20;99.90
21602;DHT22;10963;50.934;4.668;2022-10-16T13:45:20;22.10;99.90
21602;DHT22;10963;50.934;4.668;2022-10-16T13:47:47;22.20;99.90
21602;DHT22;10963;50.934;4.668;2022-10-16T13:50:19;22.20;99.90
21602;DHT22;10963;50.934;4.668;2022-10-16T13:52:45;22.10;99.90
21602;DHT22;10963;50.934;4.668;2022-10-16T13:55:18;22.10;99.90
21602;DHT22;10963;50.934;4.668;2022-10-16T13:57:44;21.90;99.90
21602;DHT22;10963;50.934;4.668;2022-10-16T14:00:23;21.90;99.90
21602;DHT22;10963;50.934;4.668;2022-10-16T14:02:57;21.90;99.90
21602;DHT22;10963;50.934;4.668;2022-10-16T14:05:27;22.10;99.90
21602;DHT22;10963;50.934;4.668;2022-10-16T14:07:55;22.00;99.90
21602;DHT22;10963;50.934;4.668;2022-10-16T14:10:28;22.10;99.90
21602;DHT22;10963;50.934;4.668;2022-10-16T14:13:03;22.10;99.90
21602;DHT22;10963;50.934;4.668;2022-10-16T14:15:31;22.10;99.90
21602;DHT22;10963;50.934;4.668;2022-10-16T14:18:00;22.20;99.90
21602;DHT22;10963;50.934;4.668;2022-10-16T14:20:31;22.40;99.90
21602;DHT22;10963;50.934;4.668;2022-10-16T14:23:16;22.40;99.90
21602;DHT22;10963;50.934;4.668;2022-10-16T14:25:46;22.30;99.90
21602;DHT22;10963;50.934;4.668;2022-10-16T14:28:16;22.30;99.90
21602;DHT22;10963;50.934;4.668;2022-10-16T14:30:58;22.20;99.90
21602;DHT22;10963;50.934;4.668;2022-10-16T14:36:04;22.10;99.90
21602;DHT22;10963;50.934;4.668;2022-10-16T14:38:33;22.00;99.90
21602;DHT22;10963;50.934;4.668;2022-10-16T14:41:03;22.00;99.90
21602;DHT22;10963;50.934;4.668;2022-10-16T14:43:38;22.10;99.90
21602;DHT22;10963;50.934;4.668;2022-10-16T14:48:41;22.10;99.90
21602;DHT22;10963;50.934;4.668;2022-10-16T14:51:14;22.10;99.90
21602;DHT22;10963;50.934;4.668;2022-10-16T14:53:45;22.10;99.90
21602;DHT22;10963;50.934;4.668;2022-10-16T14:56:18;22.10;99.90
21602;DHT22;10963;50.934;4.668;2022-10-16T14:58:44;22.00;99.90
21602;DHT22;10963;50.934;4.668;2022-10-16T15:01:10;22.00;99.90
21602;DHT22;10963;50.934;4.668;2022-10-16T15:03:38;22.00;99.90
21602;DHT22;10963;50.934;4.668;2022-10-16T15:06:13;22.00;99.90
21602;DHT22;10963;50.934;4.668;2022-10-16T15:08:42;21.70;99.90
21602;DHT22;10963;50.934;4.668;2022-10-16T15:11:16;21.70;99.90
21602;DHT22;10963;50.934;4.668;2022-10-16T15:13:42;21.60;99.90
21602;DHT22;10963;50.934;4.668;2022-10-16T15:16:15;21.60;99.90
21602;DHT22;10963;50.934;4.668;2022-10-16T15:18:44;21.50;99.90
21602;DHT22;10963;50.934;4.668;2022-10-16T15:21:25;21.60;99.90
21602;DHT22;10963;50.934;4.668;2022-10-16T15:23:54;21.50;99.90
21602;DHT22;10963;50.934;4.668;2022-10-16T15:26:22;21.50;99.90
21602;DHT22;10963;50.934;4.668;2022-10-16T15:28:48;21.40;99.90
21602;DHT22;10963;50.934;4.668;2022-10-16T15:31:14;21.30;99.90
21602;DHT22;10963;50.934;4.668;2022-10-16T15:33:39;21.30;99.90
21602;DHT22;10963;50.934;4.668;2022-10-16T15:36:05;21.30;99.90
21602;DHT22;10963;50.934;4.668;2022-10-16T15:38:35;21.20;99.90
21602;DHT22;10963;50.934;4.668;2022-10-16T15:41:01;21.10;99.90
21602;DHT22;10963;50.934;4.668;2022-10-16T15:43:29;21.00;99.90
21602;DHT22;10963;50.934;4.668;2022-10-16T15:46:04;21.00;99.90
21602;DHT22;10963;50.934;4.668;2022-10-16T15:48:33;21.00;99.90
21602;DHT22;10963;50.934;4.668;2022-10-16T15:51:00;20.90;99.90
21602;DHT22;10963;50.934;4.668;2022-10-16T15:53:30;20.80;99.90
21602;DHT22;10963;50.934;4.668;2022-10-16T15:56:00;20.70;99.90
21602;DHT22;10963;50.934;4.668;2022-10-16T15:58:27;20.60;99.90
21602;DHT22;10963;50.934;4.668;2022-10-16T16:00:58;20.50;99.90
21602;DHT22;10963;50.934;4.668;2022-10-16T16:03:26;20.40;99.90
21602;DHT22;10963;50.934;4.668;2022-10-16T16:05:52;20.30;99.90
21602;DHT22;10963;50.934;4.668;2022-10-16T16:08:18;20.30;99.90
21602;DHT22;10963;50.934;4.668;2022-10-16T16:10:44;20.20;99.90
21602;DHT22;10963;50.934;4.668;2022-10-16T16:13:10;20.10;99.90
21602;DHT22;10963;50.934;4.668;2022-10-16T16:15:39;20.00;99.90
21602;DHT22;10963;50.934;4.668;2022-10-16T16:18:06;20.00;99.90
21602;DHT22;10963;50.934;4.668;2022-10-16T16:20:35;19.90;99.90
21602;DHT22;10963;50.934;4.668;2022-10-16T16:23:01;19.90;99.90
21602;DHT22;10963;50.934;4.668;2022-10-16T16:25:29;19.80;99.90
21602;DHT22;10963;50.934;4.668;2022-10-16T16:27:57;19.70;99.90
21602;DHT22;10963;50.934;4.668;2022-10-16T16:30:24;19.60;99.90
21602;DHT22;10963;50.934;4.668;2022-10-16T16:32:56;19.50;99.90
21602;DHT22;10963;50.934;4.668;2022-10-16T16:35:22;19.30;99.90
21602;DHT22;10963;50.934;4.668;2022-10-16T16:37:48;19.30;99.90
21602;DHT22;10963;50.934;4.668;2022-10-16T16:40:16;19.30;99.90
21602;DHT22;10963;50.934;4.668;2022-10-16T16:42:42;19.40;99.90
21602;DHT22;10963;50.934;4.668;2022-10-16T16:45:12;19.30;99.90
21602;DHT22;10963;50.934;4.668;2022-10-16T16:47:38;19.20;99.90
21602;DHT22;10963;50.934;4.668;2022-10-16T16:50:04;19.10;99.90
21602;DHT22;10963;50.934;4.668;2022-10-16T16:52:32;19.00;99.90
21602;DHT22;10963;50.934;4.668;2022-10-16T16:54:58;19.00;99.90
21602;DHT22;10963;50.934;4.668;2022-10-16T16:57:27;18.80;99.90
21602;DHT22;10963;50.934;4.668;2022-10-16T16:59:55;18.90;99.90
21602;DHT22;10963;50.934;4.668;2022-10-16T17:02:20;18.80;99.90
21602;DHT22;10963;50.934;4.668;2022-10-16T17:04:48;18.70;99.90
21602;DHT22;10963;50.934;4.668;2022-10-16T17:07:18;18.70;99.90
21602;DHT22;10963;50.934;4.668;2022-10-16T17:09:46;18.80;99.90
21602;DHT22;10963;50.934;4.668;2022-10-16T17:12:12;18.80;99.90
21602;DHT22;10963;50.934;4.668;2022-10-16T17:14:38;18.80;99.90
21602;DHT22;10963;50.934;4.668;2022-10-16T17:17:07;18.70;99.90
21602;DHT22;10963;50.934;4.668;2022-10-16T17:19:33;18.60;99.90
21602;DHT22;10963;50.934;4.668;2022-10-16T17:21:59;18.50;99.90
21602;DHT22;10963;50.934;4.668;2022-10-16T17:24:28;18.40;99.90
21602;DHT22;10963;50.934;4.668;2022-10-16T17:26:53;18.50;99.90
21602;DHT22;10963;50.934;4.668;2022-10-16T17:29:19;18.10;99.90
21602;DHT22;10963;50.934;4.668;2022-10-16T17:31:46;17.90;99.90
21602;DHT22;10963;50.934;4.668;2022-10-16T17:34:17;17.70;99.90
21602;DHT22;10963;50.934;4.668;2022-10-16T17:36:45;17.60;99.90
21602;DHT22;10963;50.934;4.668;2022-10-16T17:39:13;17.60;99.90
21602;DHT22;10963;50.934;4.668;2022-10-16T17:41:39;17.50;99.90
21602;DHT22;10963;50.934;4.668;2022-10-16T17:44:06;17.40;99.90
21602;DHT22;10963;50.934;4.668;2022-10-16T17:46:34;17.40;99.90
21602;DHT22;10963;50.934;4.668;2022-10-16T17:49:00;17.40;99.90
21602;DHT22;10963;50.934;4.668;2022-10-16T17:51:30;17.40;99.90
21602;DHT22;10963;50.934;4.668;2022-10-16T17:53:58;17.40;99.90
21602;DHT22;10963;50.934;4.668;2022-10-16T17:56:25;17.20;99.90